sensor_id;sensor_type;location;lat;lon;timestamp;P1;durP1;ratioP1;P2;durP2;ratioP2
12425;SDS011;6277;49.824;9.562;2024-03-23T00:53:07;3.90;;;3.10;;
12425;SDS011;6277;49.824;9.562;2024-03-23T00:55:33;4.47;;;3.10;;
12425;SDS011;6277;49.824;9.562;2024-03-23T00:57:59;3.97;;;3.30;;
12425;SDS011;6277;49.824;9.562;2024-03-23T01:00:24;6.65;;;4.00;;
12425;SDS011;6277;49.824;9.562;2024-03-23T01:02:50;4.07;;;3.30;;
12425;SDS011;6277;49.824;9.562;2024-03-23T01:05:15;4.50;;;2.97;;
12425;SDS011;6277;49.824;9.562;2024-03-23T01:07:41;4.70;;;3.22;;
12425;SDS011;6277;49.824;9.562;2024-03-23T01:10:07;4.10;;;3.03;;
12425;SDS011;6277;49.824;9.562;2024-03-23T01:12:32;3.78;;;2.75;;
12425;SDS011;6277;49.824;9.562;2024-03-23T01:14:58;4.00;;;3.30;;
12425;SDS011;6277;49.824;9.562;2024-03-23T01:17:23;3.92;;;3.03;;
12425;SDS011;6277;49.824;9.562;2024-03-23T01:19:49;4.80;;;3.13;;
12425;SDS011;6277;49.824;9.562;2024-03-23T01:22:14;4.18;;;3.28;;
12425;SDS011;6277;49.824;9.562;2024-03-23T01:24:40;6.97;;;3.72;;
12425;SDS011;6277;49.824;9.562;2024-03-23T01:27:05;4.93;;;3.55;;
12425;SDS011;6277;49.824;9.562;2024-03-23T01:29:31;4.68;;;3.72;;
12425;SDS011;6277;49.824;9.562;2024-03-23T01:31:56;4.68;;;3.70;;
12425;SDS011;6277;49.824;9.562;2024-03-23T01:34:22;4.38;;;3.90;;
12425;SDS011;6277;49.824;9.562;2024-03-23T01:36:49;4.95;;;3.92;;
12425;SDS011;6277;49.824;9.562;2024-03-23T01:39:15;4.10;;;3.50;;
12425;SDS011;6277;49.824;9.562;2024-03-23T01:41:41;6.45;;;3.78;;
12425;SDS011;6277;49.824;9.562;2024-03-23T01:44:08;5.43;;;3.80;;
12425;SDS011;6277;49.824;9.562;2024-03-23T01:46:37;8.82;;;4.00;;
12425;SDS011;6277;49.824;9.562;2024-03-23T01:49:04;4.53;;;3.60;;
12425;SDS011;6277;49.824;9.562;2024-03-23T01:51:30;5.38;;;3.90;;
12425;SDS011;6277;49.824;9.562;2024-03-23T01:53:57;4.72;;;3.33;;
12425;SDS011;6277;49.824;9.562;2024-03-23T01:56:25;4.43;;;3.28;;
12425;SDS011;6277;49.824;9.562;2024-03-23T01:58:51;5.90;;;3.58;;
12425;SDS011;6277;49.824;9.562;2024-03-23T02:01:16;5.03;;;3.63;;
12425;SDS011;6277;49.824;9.562;2024-03-23T02:03:42;5.13;;;3.42;;
12425;SDS011;6277;49.824;9.562;2024-03-23T02:06:08;4.70;;;3.92;;
12425;SDS011;6277;49.824;9.562;2024-03-23T02:08:33;5.03;;;3.35;;
12425;SDS011;6277;49.824;9.562;2024-03-23T02:10:59;3.63;;;3.28;;
12425;SDS011;6277;49.824;9.562;2024-03-23T02:13:25;3.85;;;3.22;;
12425;SDS011;6277;49.824;9.562;2024-03-23T02:15:50;4.50;;;3.05;;
12425;SDS011;6277;49.824;9.562;2024-03-23T02:18:16;4.72;;;3.33;;
12425;SDS011;6277;49.824;9.562;2024-03-23T02:20:41;4.20;;;3.33;;
12425;SDS011;6277;49.824;9.562;2024-03-23T02:23:16;6.00;;;3.70;;
12425;SDS011;6277;49.824;9.562;2024-03-23T02:25:45;7.15;;;3.83;;
12425;SDS011;6277;49.824;9.562;2024-03-23T02:28:11;4.82;;;3.47;;
12425;SDS011;6277;49.824;9.562;2024-03-23T02:30:37;4.70;;;4.00;;
12425;SDS011;6277;49.824;9.562;2024-03-23T02:33:03;4.93;;;3.63;;
12425;SDS011;6277;49.824;9.562;2024-03-23T02:35:29;5.05;;;3.88;;
12425;SDS011;6277;49.824;9.562;2024-03-23T02:37:54;4.97;;;3.58;;
12425;SDS011;6277;49.824;9.562;2024-03-23T02:40:21;4.50;;;3.50;;
12425;SDS011;6277;49.824;9.562;2024-03-23T02:42:48;4.45;;;3.72;;
12425;SDS011;6277;49.824;9.562;2024-03-23T02:45:13;6.65;;;4.40;;
12425;SDS011;6277;49.824;9.562;2024-03-23T02:47:39;6.10;;;4.28;;
12425;SDS011;6277;49.824;9.562;2024-03-23T02:50:04;5.30;;;4.50;;
12425;SDS011;6277;49.824;9.562;2024-03-23T02:52:30;4.78;;;4.15;;
12425;SDS011;6277;49.824;9.562;2024-03-23T02:54:56;6.18;;;4.90;;
12425;SDS011;6277;49.824;9.562;2024-03-23T02:57:22;5.93;;;4.45;;
12425;SDS011;6277;49.824;9.562;2024-03-23T02:59:47;5.75;;;4.15;;
12425;SDS011;6277;49.824;9.562;2024-03-23T03:02:13;6.57;;;4.47;;
12425;SDS011;6277;49.824;9.562;2024-03-23T03:04:41;6.47;;;4.93;;
12425;SDS011;6277;49.824;9.562;2024-03-23T03:07:07;4.45;;;3.70;;
12425;SDS011;6277;49.824;9.562;2024-03-23T03:09:33;6.38;;;4.03;;
12425;SDS011;6277;49.824;9.562;2024-03-23T03:12:00;5.22;;;4.32;;
12425;SDS011;6277;49.824;9.562;2024-03-23T03:14:26;5.57;;;4.28;;
12425;SDS011;6277;49.824;9.562;2024-03-23T03:16:53;6.90;;;4.75;;
12425;SDS011;6277;49.824;9.562;2024-03-23T03:19:18;6.95;;;4.93;;
12425;SDS011;6277;49.824;9.562;2024-03-23T03:21:44;5.93;;;4.72;;
12425;SDS011;6277;49.824;9.562;2024-03-23T03:24:09;5.57;;;4.80;;
12425;SDS011;6277;49.824;9.562;2024-03-23T03:26:35;6.47;;;4.90;;
12425;SDS011;6277;49.824;9.562;2024-03-23T03:29:01;5.00;;;4.40;;
12425;SDS011;6277;49.824;9.562;2024-03-23T03:31:27;5.15;;;4.65;;
12425;SDS011;6277;49.824;9.562;2024-03-23T03:33:52;5.13;;;4.22;;
12425;SDS011;6277;49.824;9.562;2024-03-23T03:36:18;5.80;;;4.05;;
12425;SDS011;6277;49.824;9.562;2024-03-23T03:38:44;5.50;;;4.65;;
12425;SDS011;6277;49.824;9.562;2024-03-23T03:41:10;5.18;;;4.55;;
12425;SDS011;6277;49.824;9.562;2024-03-23T03:43:35;4.53;;;3.78;;
12425;SDS011;6277;49.824;9.562;2024-03-23T03:46:01;5.40;;;4.35;;
12425;SDS011;6277;49.824;9.562;2024-03-23T03:48:27;6.55;;;4.60;;
12425;SDS011;6277;49.824;9.562;2024-03-23T03:50:53;6.25;;;4.35;;
12425;SDS011;6277;49.824;9.562;2024-03-23T03:53:19;4.75;;;3.92;;
12425;SDS011;6277;49.824;9.562;2024-03-23T03:55:45;4.43;;;3.72;;
12425;SDS011;6277;49.824;9.562;2024-03-23T03:58:10;5.53;;;4.05;;
12425;SDS011;6277;49.824;9.562;2024-03-23T04:00:36;5.82;;;4.40;;
12425;SDS011;6277;49.824;9.562;2024-03-23T04:03:01;5.88;;;4.40;;
12425;SDS011;6277;49.824;9.562;2024-03-23T04:05:27;5.07;;;3.92;;
12425;SDS011;6277;49.824;9.562;2024-03-23T04:07:53;6.40;;;4.65;;
12425;SDS011;6277;49.824;9.562;2024-03-23T04:10:19;7.20;;;4.88;;
12425;SDS011;6277;49.824;9.562;2024-03-23T04:12:45;5.20;;;4.18;;
12425;SDS011;6277;49.824;9.562;2024-03-23T04:15:11;6.78;;;4.78;;
12425;SDS011;6277;49.824;9.562;2024-03-23T04:17:36;5.63;;;4.65;;
12425;SDS011;6277;49.824;9.562;2024-03-23T04:20:02;8.30;;;4.78;;
12425;SDS011;6277;49.824;9.562;2024-03-23T04:22:34;6.03;;;4.60;;
12425;SDS011;6277;49.824;9.562;2024-03-23T04:25:00;6.25;;;4.80;;
12425;SDS011;6277;49.824;9.562;2024-03-23T04:27:32;8.20;;;5.35;;
12425;SDS011;6277;49.824;9.562;2024-03-23T04:29:58;7.10;;;5.22;;
12425;SDS011;6277;49.824;9.562;2024-03-23T04:32:25;7.78;;;5.20;;
12425;SDS011;6277;49.824;9.562;2024-03-23T04:34:51;7.07;;;5.18;;
12425;SDS011;6277;49.824;9.562;2024-03-23T04:37:18;6.50;;;5.13;;
12425;SDS011;6277;49.824;9.562;2024-03-23T04:39:44;8.93;;;5.97;;
12425;SDS011;6277;49.824;9.562;2024-03-23T04:42:10;8.25;;;5.65;;
12425;SDS011;6277;49.824;9.562;2024-03-23T04:44:37;9.13;;;6.63;;
12425;SDS011;6277;49.824;9.562;2024-03-23T04:47:02;8.32;;;6.15;;
12425;SDS011;6277;49.824;9.562;2024-03-23T04:49:28;8.52;;;6.03;;
12425;SDS011;6277;49.824;9.562;2024-03-23T04:51:53;8.18;;;6.57;;
12425;SDS011;6277;49.824;9.562;2024-03-23T04:54:19;8.73;;;6.78;;
12425;SDS011;6277;49.824;9.562;2024-03-23T04:56:45;8.73;;;6.72;;
12425;SDS011;6277;49.824;9.562;2024-03-23T04:59:11;8.27;;;6.25;;
12425;SDS011;6277;49.824;9.562;2024-03-23T05:01:36;8.52;;;6.50;;
12425;SDS011;6277;49.824;9.562;2024-03-23T05:04:04;9.80;;;6.63;;
12425;SDS011;6277;49.824;9.562;2024-03-23T05:06:30;9.68;;;6.85;;
12425;SDS011;6277;49.824;9.562;2024-03-23T05:08:55;8.65;;;6.45;;
12425;SDS011;6277;49.824;9.562;2024-03-23T05:11:21;9.23;;;6.72;;
12425;SDS011;6277;49.824;9.562;2024-03-23T05:13:47;9.90;;;6.72;;
12425;SDS011;6277;49.824;9.562;2024-03-23T05:16:12;10.48;;;6.60;;
12425;SDS011;6277;49.824;9.562;2024-03-23T05:18:38;9.65;;;6.82;;
12425;SDS011;6277;49.824;9.562;2024-03-23T05:21:03;10.30;;;6.90;;
12425;SDS011;6277;49.824;9.562;2024-03-23T05:23:29;9.13;;;6.38;;
12425;SDS011;6277;49.824;9.562;2024-03-23T05:25:55;9.75;;;6.85;;
12425;SDS011;6277;49.824;9.562;2024-03-23T05:28:23;9.18;;;5.85;;
12425;SDS011;6277;49.824;9.562;2024-03-23T05:30:52;9.07;;;6.53;;
12425;SDS011;6277;49.824;9.562;2024-03-23T05:33:19;8.93;;;6.45;;
12425;SDS011;6277;49.824;9.562;2024-03-23T05:35:45;8.25;;;6.40;;
12425;SDS011;6277;49.824;9.562;2024-03-23T05:38:11;9.25;;;5.93;;
12425;SDS011;6277;49.824;9.562;2024-03-23T05:40:37;8.80;;;6.60;;
12425;SDS011;6277;49.824;9.562;2024-03-23T05:43:05;9.70;;;6.95;;
12425;SDS011;6277;49.824;9.562;2024-03-23T05:45:31;8.70;;;6.40;;
12425;SDS011;6277;49.824;9.562;2024-03-23T05:47:57;8.02;;;6.20;;
12425;SDS011;6277;49.824;9.562;2024-03-23T05:50:23;10.25;;;6.57;;
12425;SDS011;6277;49.824;9.562;2024-03-23T05:52:49;8.45;;;6.43;;
12425;SDS011;6277;49.824;9.562;2024-03-23T05:55:15;9.00;;;6.13;;
12425;SDS011;6277;49.824;9.562;2024-03-23T05:57:40;8.73;;;6.05;;
12425;SDS011;6277;49.824;9.562;2024-03-23T06:00:06;7.82;;;5.43;;
12425;SDS011;6277;49.824;9.562;2024-03-23T06:02:40;6.85;;;5.55;;
12425;SDS011;6277;49.824;9.562;2024-03-23T06:05:11;7.70;;;5.20;;
12425;SDS011;6277;49.824;9.562;2024-03-23T06:07:37;5.95;;;4.63;;
12425;SDS011;6277;49.824;9.562;2024-03-23T06:10:03;6.50;;;4.88;;
12425;SDS011;6277;49.824;9.562;2024-03-23T06:12:30;5.82;;;4.22;;
12425;SDS011;6277;49.824;9.562;2024-03-23T06:14:56;5.00;;;4.00;;
12425;SDS011;6277;49.824;9.562;2024-03-23T06:17:22;5.57;;;4.00;;
12425;SDS011;6277;49.824;9.562;2024-03-23T06:19:47;4.88;;;3.78;;
12425;SDS011;6277;49.824;9.562;2024-03-23T06:22:14;4.22;;;3.25;;
12425;SDS011;6277;49.824;9.562;2024-03-23T06:24:39;4.78;;;3.70;;
12425;SDS011;6277;49.824;9.562;2024-03-23T06:27:05;4.25;;;3.33;;
12425;SDS011;6277;49.824;9.562;2024-03-23T06:29:30;4.68;;;3.00;;
12425;SDS011;6277;49.824;9.562;2024-03-23T06:31:56;3.47;;;2.75;;
12425;SDS011;6277;49.824;9.562;2024-03-23T06:34:21;3.83;;;2.55;;
12425;SDS011;6277;49.824;9.562;2024-03-23T06:36:48;3.60;;;2.50;;
12425;SDS011;6277;49.824;9.562;2024-03-23T06:39:14;2.80;;;2.40;;
12425;SDS011;6277;49.824;9.562;2024-03-23T06:41:41;2.72;;;1.90;;
12425;SDS011;6277;49.824;9.562;2024-03-23T06:44:07;2.00;;;1.60;;
12425;SDS011;6277;49.824;9.562;2024-03-23T06:46:32;2.25;;;1.65;;
12425;SDS011;6277;49.824;9.562;2024-03-23T06:48:58;1.63;;;1.15;;
12425;SDS011;6277;49.824;9.562;2024-03-23T06:51:24;1.40;;;1.08;;
12425;SDS011;6277;49.824;9.562;2024-03-23T06:53:49;2.20;;;0.90;;
12425;SDS011;6277;49.824;9.562;2024-03-23T06:56:15;0.98;;;0.75;;
12425;SDS011;6277;49.824;9.562;2024-03-23T06:58:40;0.80;;;0.60;;
12425;SDS011;6277;49.824;9.562;2024-03-23T07:01:06;0.90;;;0.80;;
12425;SDS011;6277;49.824;9.562;2024-03-23T07:03:32;0.50;;;0.50;;
12425;SDS011;6277;49.824;9.562;2024-03-23T07:05:58;0.68;;;0.52;;
12425;SDS011;6277;49.824;9.562;2024-03-23T07:08:23;0.73;;;0.60;;
12425;SDS011;6277;49.824;9.562;2024-03-23T07:10:49;1.15;;;0.40;;
12425;SDS011;6277;49.824;9.562;2024-03-23T07:13:14;0.60;;;0.52;;
12425;SDS011;6277;49.824;9.562;2024-03-23T07:15:40;0.60;;;0.50;;
12425;SDS011;6277;49.824;9.562;2024-03-23T07:18:05;0.80;;;0.40;;
12425;SDS011;6277;49.824;9.562;2024-03-23T07:20:31;1.10;;;0.40;;
12425;SDS011;6277;49.824;9.562;2024-03-23T07:22:57;0.88;;;0.60;;
12425;SDS011;6277;49.824;9.562;2024-03-23T07:25:22;0.65;;;0.57;;
12425;SDS011;6277;49.824;9.562;2024-03-23T07:27:50;0.73;;;0.63;;
12425;SDS011;6277;49.824;9.562;2024-03-23T07:30:15;1.20;;;0.63;;
12425;SDS011;6277;49.824;9.562;2024-03-23T07:32:43;1.25;;;0.60;;
12425;SDS011;6277;49.824;9.562;2024-03-23T07:35:09;0.70;;;0.65;;
12425;SDS011;6277;49.824;9.562;2024-03-23T07:37:35;0.75;;;0.52;;
12425;SDS011;6277;49.824;9.562;2024-03-23T07:40:00;2.00;;;0.50;;
12425;SDS011;6277;49.824;9.562;2024-03-23T07:42:26;0.82;;;0.30;;
12425;SDS011;6277;49.824;9.562;2024-03-23T07:44:51;0.90;;;0.20;;
12425;SDS011;6277;49.824;9.562;2024-03-23T07:47:18;0.43;;;0.20;;
12425;SDS011;6277;49.824;9.562;2024-03-23T07:49:44;0.30;;;0.30;;
12425;SDS011;6277;49.824;9.562;2024-03-23T07:52:09;0.47;;;0.30;;
12425;SDS011;6277;49.824;9.562;2024-03-23T07:54:35;0.30;;;0.25;;
12425;SDS011;6277;49.824;9.562;2024-03-23T07:57:01;1.75;;;0.30;;
12425;SDS011;6277;49.824;9.562;2024-03-23T07:59:26;0.40;;;0.20;;
12425;SDS011;6277;49.824;9.562;2024-03-23T08:01:52;0.45;;;0.30;;
12425;SDS011;6277;49.824;9.562;2024-03-23T08:04:17;0.30;;;0.20;;
12425;SDS011;6277;49.824;9.562;2024-03-23T08:06:44;0.50;;;0.30;;
12425;SDS011;6277;49.824;9.562;2024-03-23T08:09:09;0.30;;;0.22;;
12425;SDS011;6277;49.824;9.562;2024-03-23T08:11:35;0.38;;;0.20;;
12425;SDS011;6277;49.824;9.562;2024-03-23T08:14:01;0.63;;;0.17;;
12425;SDS011;6277;49.824;9.562;2024-03-23T08:16:26;0.55;;;0.30;;
12425;SDS011;6277;49.824;9.562;2024-03-23T08:18:52;0.28;;;0.20;;
12425;SDS011;6277;49.824;9.562;2024-03-23T08:21:18;0.38;;;0.20;;
12425;SDS011;6277;49.824;9.562;2024-03-23T08:23:44;0.70;;;0.30;;
12425;SDS011;6277;49.824;9.562;2024-03-23T08:26:10;0.50;;;0.30;;
12425;SDS011;6277;49.824;9.562;2024-03-23T08:28:36;0.70;;;0.30;;
12425;SDS011;6277;49.824;9.562;2024-03-23T08:31:06;0.80;;;0.30;;
12425;SDS011;6277;49.824;9.562;2024-03-23T08:33:33;1.20;;;0.70;;
12425;SDS011;6277;49.824;9.562;2024-03-23T08:36:06;0.70;;;0.43;;
12425;SDS011;6277;49.824;9.562;2024-03-23T08:41:02;2.00;;;0.57;;
12425;SDS011;6277;49.824;9.562;2024-03-23T08:43:32;1.40;;;0.45;;
12425;SDS011;6277;49.824;9.562;2024-03-23T08:46:06;0.93;;;0.43;;
12425;SDS011;6277;49.824;9.562;2024-03-23T08:48:36;1.30;;;0.65;;
12425;SDS011;6277;49.824;9.562;2024-03-23T08:51:04;1.13;;;0.50;;
12425;SDS011;6277;49.824;9.562;2024-03-23T08:53:33;2.53;;;0.82;;
12425;SDS011;6277;49.824;9.562;2024-03-23T08:55:59;1.70;;;0.60;;
12425;SDS011;6277;49.824;9.562;2024-03-23T08:58:26;1.58;;;0.85;;
12425;SDS011;6277;49.824;9.562;2024-03-23T09:00:52;1.52;;;0.70;;
12425;SDS011;6277;49.824;9.562;2024-03-23T09:03:25;2.58;;;0.80;;
12425;SDS011;6277;49.824;9.562;2024-03-23T09:05:51;1.33;;;0.60;;
12425;SDS011;6277;49.824;9.562;2024-03-23T09:08:17;1.85;;;0.80;;
12425;SDS011;6277;49.824;9.562;2024-03-23T09:10:43;1.42;;;0.80;;
12425;SDS011;6277;49.824;9.562;2024-03-23T09:13:09;1.88;;;0.60;;
12425;SDS011;6277;49.824;9.562;2024-03-23T09:15:35;2.58;;;0.90;;
12425;SDS011;6277;49.824;9.562;2024-03-23T09:18:02;2.88;;;1.08;;
12425;SDS011;6277;49.824;9.562;2024-03-23T09:20:28;2.78;;;0.90;;
12425;SDS011;6277;49.824;9.562;2024-03-23T09:22:57;2.78;;;1.13;;
12425;SDS011;6277;49.824;9.562;2024-03-23T09:25:22;4.00;;;1.10;;
12425;SDS011;6277;49.824;9.562;2024-03-23T09:27:48;2.08;;;0.90;;
12425;SDS011;6277;49.824;9.562;2024-03-23T09:30:14;2.33;;;0.93;;
12425;SDS011;6277;49.824;9.562;2024-03-23T09:32:48;1.10;;;0.60;;
12425;SDS011;6277;49.824;9.562;2024-03-23T09:35:14;1.48;;;0.80;;
12425;SDS011;6277;49.824;9.562;2024-03-23T09:37:39;1.98;;;0.85;;
12425;SDS011;6277;49.824;9.562;2024-03-23T09:40:06;2.53;;;0.88;;
12425;SDS011;6277;49.824;9.562;2024-03-23T09:42:35;2.22;;;1.02;;
12425;SDS011;6277;49.824;9.562;2024-03-23T09:45:00;2.28;;;1.00;;
12425;SDS011;6277;49.824;9.562;2024-03-23T09:47:27;1.60;;;1.05;;
12425;SDS011;6277;49.824;9.562;2024-03-23T09:49:53;3.05;;;1.50;;
12425;SDS011;6277;49.824;9.562;2024-03-23T09:52:19;3.97;;;1.50;;
12425;SDS011;6277;49.824;9.562;2024-03-23T09:54:45;6.10;;;2.10;;
12425;SDS011;6277;49.824;9.562;2024-03-23T09:57:11;3.53;;;1.90;;
12425;SDS011;6277;49.824;9.562;2024-03-23T09:59:36;5.57;;;2.30;;
12425;SDS011;6277;49.824;9.562;2024-03-23T10:02:02;3.63;;;1.85;;
12425;SDS011;6277;49.824;9.562;2024-03-23T10:04:37;5.18;;;2.20;;
12425;SDS011;6277;49.824;9.562;2024-03-23T10:07:12;5.85;;;2.60;;
12425;SDS011;6277;49.824;9.562;2024-03-23T10:09:40;5.57;;;2.33;;
12425;SDS011;6277;49.824;9.562;2024-03-23T10:12:12;35.13;;;18.02;;
12425;SDS011;6277;49.824;9.562;2024-03-23T10:14:39;9.88;;;4.90;;
12425;SDS011;6277;49.824;9.562;2024-03-23T10:17:27;20.08;;;12.40;;
12425;SDS011;6277;49.824;9.562;2024-03-23T10:19:52;11.10;;;6.55;;
12425;SDS011;6277;49.824;9.562;2024-03-23T10:22:21;7.07;;;3.00;;
12425;SDS011;6277;49.824;9.562;2024-03-23T10:24:48;50.55;;;28.98;;
12425;SDS011;6277;49.824;9.562;2024-03-23T10:27:18;24.98;;;16.08;;
12425;SDS011;6277;49.824;9.562;2024-03-23T10:29:48;12.45;;;7.03;;
12425;SDS011;6277;49.824;9.562;2024-03-23T10:32:15;10.82;;;6.32;;
12425;SDS011;6277;49.824;9.562;2024-03-23T10:34:44;8.73;;;4.88;;
12425;SDS011;6277;49.824;9.562;2024-03-23T10:37:09;6.68;;;3.78;;
12425;SDS011;6277;49.824;9.562;2024-03-23T10:39:37;6.95;;;3.08;;
12425;SDS011;6277;49.824;9.562;2024-03-23T10:42:04;6.55;;;3.42;;
12425;SDS011;6277;49.824;9.562;2024-03-23T10:44:35;6.40;;;2.97;;
12425;SDS011;6277;49.824;9.562;2024-03-23T10:47:02;5.13;;;2.50;;
12425;SDS011;6277;49.824;9.562;2024-03-23T10:49:29;5.78;;;2.15;;
12425;SDS011;6277;49.824;9.562;2024-03-23T10:51:57;3.38;;;1.90;;
12425;SDS011;6277;49.824;9.562;2024-03-23T10:54:24;5.90;;;2.83;;
12425;SDS011;6277;49.824;9.562;2024-03-23T10:56:51;5.47;;;1.85;;
12425;SDS011;6277;49.824;9.562;2024-03-23T10:59:22;3.60;;;1.90;;
12425;SDS011;6277;49.824;9.562;2024-03-23T11:01:58;7.05;;;2.03;;
12425;SDS011;6277;49.824;9.562;2024-03-23T11:07:01;23.30;;;15.90;;
12425;SDS011;6277;49.824;9.562;2024-03-23T11:09:42;9.55;;;5.60;;
12425;SDS011;6277;49.824;9.562;2024-03-23T11:14:52;7.13;;;3.30;;
12425;SDS011;6277;49.824;9.562;2024-03-23T11:17:22;6.88;;;2.70;;
12425;SDS011;6277;49.824;9.562;2024-03-23T11:19:58;3.70;;;1.95;;
12425;SDS011;6277;49.824;9.562;2024-03-23T11:25:12;4.72;;;1.25;;
12425;SDS011;6277;49.824;9.562;2024-03-23T11:30:10;4.30;;;1.80;;
12425;SDS011;6277;49.824;9.562;2024-03-23T11:32:50;6.22;;;1.90;;
12425;SDS011;6277;49.824;9.562;2024-03-23T11:38:10;4.10;;;1.45;;
12425;SDS011;6277;49.824;9.562;2024-03-23T11:40:50;5.47;;;1.83;;
12425;SDS011;6277;49.824;9.562;2024-03-23T11:43:16;33.47;;;19.77;;
12425;SDS011;6277;49.824;9.562;2024-03-23T11:45:47;25.35;;;17.20;;
12425;SDS011;6277;49.824;9.562;2024-03-23T11:48:18;27.20;;;16.00;;
12425;SDS011;6277;49.824;9.562;2024-03-23T11:50:46;96.93;;;47.30;;
12425;SDS011;6277;49.824;9.562;2024-03-23T11:53:19;78.70;;;36.83;;
12425;SDS011;6277;49.824;9.562;2024-03-23T11:55:51;280.38;;;151.95;;
12425;SDS011;6277;49.824;9.562;2024-03-23T11:58:28;132.13;;;74.72;;
12425;SDS011;6277;49.824;9.562;2024-03-23T12:00:59;172.52;;;84.40;;
12425;SDS011;6277;49.824;9.562;2024-03-23T12:03:28;111.97;;;60.83;;
12425;SDS011;6277;49.824;9.562;2024-03-23T12:05:55;59.97;;;33.58;;
12425;SDS011;6277;49.824;9.562;2024-03-23T12:08:24;30.95;;;17.63;;
12425;SDS011;6277;49.824;9.562;2024-03-23T12:10:54;14.10;;;9.02;;
12425;SDS011;6277;49.824;9.562;2024-03-23T12:13:37;8.68;;;5.40;;
12425;SDS011;6277;49.824;9.562;2024-03-23T12:16:12;5.63;;;3.03;;
12425;SDS011;6277;49.824;9.562;2024-03-23T12:18:42;4.60;;;1.50;;
12425;SDS011;6277;49.824;9.562;2024-03-23T12:21:11;3.60;;;1.58;;
12425;SDS011;6277;49.824;9.562;2024-03-23T12:23:40;4.20;;;1.65;;
12425;SDS011;6277;49.824;9.562;2024-03-23T12:26:07;2.67;;;1.20;;
12425;SDS011;6277;49.824;9.562;2024-03-23T12:28:33;7.55;;;1.40;;
12425;SDS011;6277;49.824;9.562;2024-03-23T12:30:58;5.28;;;1.55;;
12425;SDS011;6277;49.824;9.562;2024-03-23T12:33:24;3.40;;;1.40;;
12425;SDS011;6277;49.824;9.562;2024-03-23T12:35:50;5.15;;;1.50;;
12425;SDS011;6277;49.824;9.562;2024-03-23T12:38:16;4.00;;;1.40;;
12425;SDS011;6277;49.824;9.562;2024-03-23T12:40:46;2.45;;;0.98;;
12425;SDS011;6277;49.824;9.562;2024-03-23T12:43:13;2.58;;;0.98;;
12425;SDS011;6277;49.824;9.562;2024-03-23T12:45:38;4.20;;;1.40;;
12425;SDS011;6277;49.824;9.562;2024-03-23T12:48:04;3.28;;;1.75;;
12425;SDS011;6277;49.824;9.562;2024-03-23T12:50:30;4.28;;;1.70;;
12425;SDS011;6277;49.824;9.562;2024-03-23T12:52:55;2.95;;;1.33;;
12425;SDS011;6277;49.824;9.562;2024-03-23T12:55:21;3.83;;;1.17;;
12425;SDS011;6277;49.824;9.562;2024-03-23T12:57:47;3.45;;;1.25;;
12425;SDS011;6277;49.824;9.562;2024-03-23T13:00:13;5.00;;;1.70;;
12425;SDS011;6277;49.824;9.562;2024-03-23T13:02:40;5.50;;;1.70;;
12425;SDS011;6277;49.824;9.562;2024-03-23T13:05:06;5.18;;;1.48;;
12425;SDS011;6277;49.824;9.562;2024-03-23T13:07:33;4.43;;;1.20;;
12425;SDS011;6277;49.824;9.562;2024-03-23T13:10:00;3.28;;;1.05;;
12425;SDS011;6277;49.824;9.562;2024-03-23T13:12:26;3.63;;;1.10;;
12425;SDS011;6277;49.824;9.562;2024-03-23T13:14:51;3.30;;;0.95;;
12425;SDS011;6277;49.824;9.562;2024-03-23T13:17:17;3.42;;;1.10;;
12425;SDS011;6277;49.824;9.562;2024-03-23T13:19:42;3.35;;;0.98;;
12425;SDS011;6277;49.824;9.562;2024-03-23T13:22:08;2.38;;;0.80;;
12425;SDS011;6277;49.824;9.562;2024-03-23T13:24:36;2.60;;;1.15;;
12425;SDS011;6277;49.824;9.562;2024-03-23T13:27:02;1.65;;;0.80;;
12425;SDS011;6277;49.824;9.562;2024-03-23T13:29:29;3.45;;;1.05;;
12425;SDS011;6277;49.824;9.562;2024-03-23T13:31:55;2.47;;;1.00;;
12425;SDS011;6277;49.824;9.562;2024-03-23T13:34:20;3.40;;;1.25;;
12425;SDS011;6277;49.824;9.562;2024-03-23T13:36:46;1.92;;;0.93;;
12425;SDS011;6277;49.824;9.562;2024-03-23T13:39:12;2.03;;;1.00;;
12425;SDS011;6277;49.824;9.562;2024-03-23T13:41:39;5.35;;;1.40;;
12425;SDS011;6277;49.824;9.562;2024-03-23T13:44:06;3.85;;;1.20;;
12425;SDS011;6277;49.824;9.562;2024-03-23T13:46:32;3.20;;;1.27;;
12425;SDS011;6277;49.824;9.562;2024-03-23T13:48:58;4.47;;;1.30;;
12425;SDS011;6277;49.824;9.562;2024-03-23T13:51:24;2.67;;;1.27;;
12425;SDS011;6277;49.824;9.562;2024-03-23T13:53:52;3.00;;;1.10;;
12425;SDS011;6277;49.824;9.562;2024-03-23T13:56:21;3.25;;;1.17;;
12425;SDS011;6277;49.824;9.562;2024-03-23T13:58:47;3.28;;;1.23;;
12425;SDS011;6277;49.824;9.562;2024-03-23T14:01:13;2.75;;;1.30;;
12425;SDS011;6277;49.824;9.562;2024-03-23T14:03:40;2.97;;;1.10;;
12425;SDS011;6277;49.824;9.562;2024-03-23T14:06:06;2.47;;;1.45;;
12425;SDS011;6277;49.824;9.562;2024-03-23T14:08:32;2.90;;;1.10;;
12425;SDS011;6277;49.824;9.562;2024-03-23T14:11:00;2.03;;;0.80;;
12425;SDS011;6277;49.824;9.562;2024-03-23T14:13:27;2.33;;;0.88;;
12425;SDS011;6277;49.824;9.562;2024-03-23T14:15:53;2.75;;;0.82;;
12425;SDS011;6277;49.824;9.562;2024-03-23T14:18:19;2.65;;;0.80;;
12425;SDS011;6277;49.824;9.562;2024-03-23T14:20:45;1.60;;;0.75;;
12425;SDS011;6277;49.824;9.562;2024-03-23T14:23:10;2.33;;;0.73;;
12425;SDS011;6277;49.824;9.562;2024-03-23T14:25:36;1.95;;;0.73;;
12425;SDS011;6277;49.824;9.562;2024-03-23T14:28:01;1.20;;;0.70;;
12425;SDS011;6277;49.824;9.562;2024-03-23T14:30:27;1.65;;;0.70;;
12425;SDS011;6277;49.824;9.562;2024-03-23T14:32:52;1.83;;;0.80;;
12425;SDS011;6277;49.824;9.562;2024-03-23T14:35:18;1.95;;;0.70;;
12425;SDS011;6277;49.824;9.562;2024-03-23T14:37:43;2.47;;;0.90;;
12425;SDS011;6277;49.824;9.562;2024-03-23T14:40:09;3.10;;;0.82;;
12425;SDS011;6277;49.824;9.562;2024-03-23T14:42:37;3.00;;;0.93;;
12425;SDS011;6277;49.824;9.562;2024-03-23T14:45:03;1.65;;;0.52;;
12425;SDS011;6277;49.824;9.562;2024-03-23T14:47:30;2.22;;;0.75;;
12425;SDS011;6277;49.824;9.562;2024-03-23T14:49:56;1.95;;;1.02;;
12425;SDS011;6277;49.824;9.562;2024-03-23T14:52:23;1.40;;;0.70;;
12425;SDS011;6277;49.824;9.562;2024-03-23T14:54:49;1.40;;;0.70;;
12425;SDS011;6277;49.824;9.562;2024-03-23T14:57:15;1.52;;;0.73;;
12425;SDS011;6277;49.824;9.562;2024-03-23T14:59:40;1.70;;;0.88;;
12425;SDS011;6277;49.824;9.562;2024-03-23T15:02:06;2.35;;;0.88;;
12425;SDS011;6277;49.824;9.562;2024-03-23T15:04:33;2.40;;;1.05;;
12425;SDS011;6277;49.824;9.562;2024-03-23T15:06:58;1.75;;;0.75;;
12425;SDS011;6277;49.824;9.562;2024-03-23T15:09:24;1.50;;;0.80;;
12425;SDS011;6277;49.824;9.562;2024-03-23T15:11:50;1.42;;;0.80;;
12425;SDS011;6277;49.824;9.562;2024-03-23T15:14:15;1.55;;;0.90;;
12425;SDS011;6277;49.824;9.562;2024-03-23T15:16:41;1.40;;;0.85;;
12425;SDS011;6277;49.824;9.562;2024-03-23T15:19:09;2.53;;;0.60;;
12425;SDS011;6277;49.824;9.562;2024-03-23T15:21:35;2.05;;;0.75;;
12425;SDS011;6277;49.824;9.562;2024-03-23T15:24:00;1.27;;;0.65;;
12425;SDS011;6277;49.824;9.562;2024-03-23T15:26:26;0.77;;;0.68;;
12425;SDS011;6277;49.824;9.562;2024-03-23T15:28:52;2.70;;;0.70;;
12425;SDS011;6277;49.824;9.562;2024-03-23T15:31:23;1.38;;;0.60;;
12425;SDS011;6277;49.824;9.562;2024-03-23T15:33:49;3.33;;;0.70;;
12425;SDS011;6277;49.824;9.562;2024-03-23T15:36:15;1.23;;;0.60;;
12425;SDS011;6277;49.824;9.562;2024-03-23T15:38:41;1.65;;;0.52;;
12425;SDS011;6277;49.824;9.562;2024-03-23T15:41:08;2.08;;;0.70;;
12425;SDS011;6277;49.824;9.562;2024-03-23T15:43:33;1.08;;;0.60;;
12425;SDS011;6277;49.824;9.562;2024-03-23T15:46:00;0.80;;;0.50;;
12425;SDS011;6277;49.824;9.562;2024-03-23T15:48:27;1.85;;;0.55;;
12425;SDS011;6277;49.824;9.562;2024-03-23T15:50:53;0.82;;;0.60;;
12425;SDS011;6277;49.824;9.562;2024-03-23T15:53:19;1.88;;;0.68;;
12425;SDS011;6277;49.824;9.562;2024-03-23T15:55:53;0.90;;;0.50;;
12425;SDS011;6277;49.824;9.562;2024-03-23T15:58:28;1.33;;;0.57;;
12425;SDS011;6277;49.824;9.562;2024-03-23T16:00:55;1.58;;;0.40;;
12425;SDS011;6277;49.824;9.562;2024-03-23T16:03:21;1.80;;;0.40;;
12425;SDS011;6277;49.824;9.562;2024-03-23T16:05:51;1.02;;;0.40;;